の過去48時間の天気

Eureka

現在時刻: 7/4 22:52 CDT (7/5 03:52 UTC) 以下の時間は現地時間です。

過去48時間のMETAR気象情報
時間 風向 風速(m/s) 視程 気温(℃) 湿度(%) 気圧(hPa) 天気現象
4 22:00 5 10km以上 6 81 1016.4 弱い雨
4 21:47 北北東 5 10km以上 6 81 1016.4 弱い雨
4 21:00 北北東 8 10km以上 6 81 1016.7
4 20:13 4 10km以上 6 81 1016.9
4 20:00 4 10km以上 6 81 1016.8 弱い雨
4 19:00 4 10km以上 7 76 1016.9
4 18:00 4 10km以上 7 76 1016.7 弱い雨
4 17:05 北北西 4 10km以上 7 66 1017 弱い雨
4 16:00 4 10km以上 7 57 1017.2
4 15:00 3 10km以上 7 53 1017.3
4 14:00 西 4 10km以上 6 57 1017.6
4 13:00 西 5 10km以上 6 57 1017.8
4 12:41 4 10km以上 6 57 1017.8
4 12:00 3 10km以上 5 61 1018.2
4 11:00 西北西 3 10km以上 5 56 1018.5
4 10:00 西 5 10km以上 5 61 1019
4 09:00 西 5 10km以上 4 60 1019.5
4 08:42 西 5 10km以上 4 60 1019.5
4 08:36 5 10km以上 5 56 1019.6
4 08:00 6 10km以上 4 65 1019.8
4 07:00 西 5 10km以上 4 60 1019.8
4 06:00 西 6 10km以上 3 65 1020
4 05:00 西 5 10km以上 3 65 1020.1
4 04:00 北西 3 10km以上 3 70 1020.4
4 03:00 北北西 2 10km以上 3 65 1020.7
4 02:00 7 10km以上 5 56 1020.7
4 01:00 北北西 4 10km以上 2 69 1020.6
3 22:00 西 6 10km以上 2 69 1020.3
3 21:00 西南西 6 10km以上 2 69 1020.4
3 20:00 西 4 10km以上 3 65 1020
3 19:00 西 5 10km以上 3 70 1019.9
3 18:00 西 6 10km以上 3 65 1019.5
3 17:00 西 5 10km以上 4 60 1019
3 16:00 西 8 10km以上 4 60 1018.6
3 15:00 西 6 10km以上 5 56 1018.1
3 14:00 7 10km以上 4 65 1017.9
3 13:00 西北西 5 10km以上 4 65 1016.9
3 12:00 西南西 8 10km以上 4 75 1017
3 11:00 北北西 12 10km以上 4 70 1016.7
3 10:26 7 10km以上 5 75 1016.9
3 10:00 西 6 10km以上 3 87 1016.7
3 09:00 9 10km以上 5 81 1016.5
3 08:00 13 10km以上 5 81 1016
3 07:00 13 10km以上 5 81 1015.6
3 06:54 11 10km以上 5 87 1015.7
3 06:21 西 2 10km以上 3 93 1015.7
3 06:00 北北東 7 10km以上 5 87 1015.6
3 05:00 北北東 9 10km以上 5 87 1015.3 弱い雨
3 04:34 8 10km以上 5 93 1015.1 弱い雨
3 04:00 4 2400m 4 93 1015 弱い雨 もや
3 03:00 東南東 5 2400m 4 93 1014.8 弱い雨 もや
3 02:43 4 2400m 3 100 1014.8 弱い雨 もや
3 02:00 6 1000m 4 93 1014.6 弱い雨 もや
3 01:34 東南東 7 800m 4 93 1014.6 弱い雨 霧
3 01:00 東南東 7 4000m 4 93 1014.4 弱い霧雨 もや
CWEU 050300Z 01009KT 15SM -RA FEW015 SCT023 BKN035 OVC050 06/03 A2999 RMK ST1SC3SC2SC3 ST TR LAST SFTD OBS/NXT 050600Z SLP164
CWEU 050247Z 02009KT 15SM -RA FEW015 SCT025 BKN035 OVC050 06/03 A2999 RMK ST1SC3SC3SC2 SLP164
CWEU 050200Z 02016KT 15SM FEW015 SCT027 OVC040 06/03 A3000 RMK ST1SC4SC4 ST TR SLP167
CWEU 050113Z 36008KT 250V060 15SM SCT028 BKN040 BKN055 06/03 A3000 RMK SC4SC3SC1 SLP169
CWEU 050100Z 35008KT 15SM -RA FEW015 SCT028 BKN040 OVC055 06/03 A3000 RMK ST1SC4SC3SC1 ST TR SLP168
CWEU 050000Z 01008KT 15SM FEW015 BKN028 BKN040 OVC055 07/03 A3000 RMK ST1SC6SC1SC1 ST TR SLP169
CWEU 042300Z CCA 36008KT 15SM -RA BKN030 BKN045 OVC060 07/03 A3000 RMK SC5SC2SC1 SLP167
CWEU 042205Z 34008KT 15SM -RA BKN032 OVC046 07/01 A3001 RMK SC7SC1 SLP170
CWEU 042100Z VRB07KT 15SM BKN035 BKN050 BKN070 07/M01 A3001 RMK SC5SC2AC1 AC TR SLP172
CWEU 042000Z VRB05KT 15SM SCT037 BKN050 BKN068 BKN086 07/M02 A3001 RMK SC3SC2AC1AC1 SLP173
CWEU 041900Z 27007KT 260V340 15SM FEW036 SCT050 BKN070 BKN100 BKN200 06/M02 A3002 RMK SC1SC3AC2AC1CI1 CI TR SLP176
CWEU 041800Z 27009KT 260V330 15SM FEW048 BKN072 BKN130 BKN210 06/M02 A3003 RMK SC2AS3AC2CI1 CI TR SLP178
CWEU 041741Z VRB08KT 15SM FEW052 SCT073 BKN130 BKN210 06/M02 A3003 RMK SC1AS3AC2CI1 WSHFT 1725 SLP178
CWEU 041700Z VRB06KT 15SM SCT034 BKN092 BKN120 BKN210 05/M02 A3004 RMK SC3AS2AC2CI1 CI TR SLP182
CWEU 041600Z 30005KT 250V360 15SM FEW035 SCT090 BKN120 BKN150 BKN200 05/M03 A3005 RMK SC2AS2AC2AC1CI1 CI TR SLP185
CWEU 041500Z 26010KT 15SM FEW045 SCT075 BKN090 BKN120 BKN200 05/M02 A3006 RMK SC2AC1AS2AC2CI1 CI TR SLP190
CWEU 041400Z 27009KT 220V350 15SM FEW060 SCT075 BKN090 BKN120 04/M03 A3008 RMK SC2AC2AS3AC1 AC TR SLP195
CWEU 041342Z 27010G18KT 240V020 15SM FEW070 BKN090 04/M03 A3008 RMK AC2AS5 WSHFT 1337 SLP195
CWEU 041336Z 36009G19KT 300V020 15SM FEW075 BKN090 05/M03 A3008 RMK AC2AS5 WSHFT 1324 SLP196
CWEU 041300Z VRB11G16KT 15SM SCT080 BKN110 BKN200 04/M02 A3009 RMK AS4AC3CI1 CI TR SLP198
CWEU 041200Z 27009KT 220V020 15SM FEW050 SCT080 BKN110 BKN200 04/M03 A3009 RMK SC1AC2AS4CI1 CI TR SLP198
CWEU 041100Z 27012KT 250V330 15SM FEW050 SCT120 BKN160 BKN200 03/M03 A3009 RMK SC1AS3AC4CI1 SC TR CI TR SLP200
CWEU 041000Z 26009KT 250V310 15SM FEW050 FEW075 SCT140 BKN160 BKN200 03/M03 A3010 RMK SC1AC1AS2AC2CI1 SLP201
CWEU 040900Z 32005KT 270V350 15SM SCT150 BKN200 03/M02 A3010 RMK AS3CS3 HALO SLP204
CWEU 040800Z 33003KT 15SM FEW160 BKN230 03/M03 A3011 RMK AC2CI4 SLP207
CWEU 040700Z 01014G21KT 15SM FEW160 BKN230 05/M03 A3011 RMK AC2CI4 SLP207
CWEU 040600Z 33008KT 15SM FEW160 BKN230 02/M03 A3011 RMK AC1CI5 SLP206
CWEU 040300Z 26012KT 240V010 14SM FEW023 FEW210 02/M03 A3010 RMK SC1CI1 SC TR CI TR LASR STFD OBS/NXT 040600Z SLP203
CWEU 040200Z 25012KT 240V310 15SM FEW023 FEW210 02/M03 A3010 RMK SC1CI1 SC TR CI TR SLP204
CWEU 040100Z 26008G17KT 15SM FEW023 FEW210 03/M03 A3009 RMK SC1CI1 SC TR CI TR SLP200
CWEU 040000Z 27010G19KT 250V330 15SM FEW023 03/M02 A3009 RMK SC1 SC TR SLP199
CWEU 032300Z 27011G18KT 15SM FEW025 03/M03 A3008 RMK SC1 SC TR SLP195
CWEU 032200Z 27010G18KT 250V310 15SM FEW025 04/M03 A3006 RMK SC1 SC TR SLP190
CWEU 032100Z 27015KT 15SM FEW025 04/M03 A3005 RMK SC1 SC TR SLP186
CWEU 032000Z 26011G19KT 220V010 15SM FEW025 05/M03 A3004 RMK SC1 SC TR SLP181
CWEU 031900Z VRB13G18KT 15SM FEW020 FEW100 04/M02 A3003 RMK SC1AC1 SC TR AC TR SLP179
CWEU 031800Z 29009G20KT 260V350 15SM FEW020 FEW100 04/M02 A3000 RMK SC1AC1 SC TR AC TR SLP169
CWEU 031700Z 25015G22KT 210V340 15SM FEW020 FEW040 FEW100 04/00 A3000 RMK SC1SC1AC1 SC TR SC TR AC TR SLP170
CWEU 031600Z 34024G30KT 15SM FEW020 FEW045 SCT090 BKN140 04/M01 A3000 RMK SC1SC1AC3AC1 SC TR SLP167
CWEU 031526Z 35014G19KT 210V360 15SM FEW018 FEW045 SCT090 BKN140 05/01 A3000 RMK SC1SC2AC2AC2 SC TR WSHFT 1521 SLP169
CWEU 031500Z 26012G18KT 250V350 15SM FEW018 SCT045 BKN090 BKN140 03/01 A3000 RMK SC1SC3AC1AC2 LWR AC LENT N QUAD SLP167
CWEU 031400Z 35018KT 15SM FEW018 SCT048 BKN076 BKN100 BKN140 05/02 A2999 RMK SC1SC3AC1AC2AC1 AC TR SLP165
CWEU 031300Z 35026KT 15SM FEW009 FEW018 BKN050 BKN100 BKN140 05/02 A2998 RMK ST1CU2SC3AC1AC1 ST TR SLP160
CWEU 031200Z 35026KT 15SM FEW009 SCT015 BKN040 BKN100 BKN140 05/02 A2996 RMK ST1SC3SC3AC1AC1 ST TR AC TR SLP156
CWEU 031154Z VRB21KT 15SM FEW009 SCT015 BKN040 BKN100 BKN140 05/03 A2997 RMK ST1SC3SC3AC1AC1 ST TR AC TR WSHFT 1148 SLP157
CWEU 031121Z 28003G18KT 15SM FEW009 SCT014 BKN030 BKN120 03/02 A2997 RMK ST1SC3SC4AC1 ST TR AC TR SLP157
CWEU 031100Z 03013G21KT 15SM FEW009 SCT016 BKN025 BKN036 BKN120 05/03 A2996 RMK ST1SC3SC1SC2AC1 AC TR SLP156
CWEU 031000Z CCA 02018KT 10SM -RA FEW009 SCT019 BKN025 OVC032 05/03 A2996 RMK ST2SC2SC3SC1 SLP153
CWEU 030934Z 01016KT 7SM -RA FEW009 BKN025 OVC032 05/04 A2995 RMK ST2SC3SC3 VIS LWR W SLP151
CWEU 030900Z 01007KT 1 1/2SM -RA BR SCT005 OVC015 04/03 A2995 RMK ST4SC4 VIS VRB 1-2 SLP150
CWEU 030800Z 11009KT 1 1/2SM -RA BR SCT006 OVC017 04/03 A2994 RMK ST4SC4 VIS VRB 1-2 SLP148
CWEU 030743Z 10008KT 080V140 1 1/2SM -RA BR SCT005 OVC015 03/03 A2994 RMK ST4SC4 VIS VRB 1-2 SLP148
CWEU 030700Z 10012KT 5/8SM -RA BR SCT006 OVC014 04/03 A2993 RMK ST4SC4 VIS VRB 3/8-1 1/4 SLP146
CWEU 030634Z 11014KT 1/2SM -RA FG SCT006 OVC014 04/03 A2993 RMK ST4SC4 VIS VRB 3/8-5/8 SLP146
CWEU 030600Z 11013KT 2 1/2SM -DZ BR SCT005 OVC013 04/03 A2993 RMK ST4SC4 VIS VRB 11/2-4 SLP144